createdAt,value
2018-09-27T00:01:20.027Z,13.60
2018-09-27T00:03:48.592Z,13.60
2018-09-27T00:06:17.163Z,13.60
2018-09-27T00:08:45.749Z,13.60
2018-09-27T00:11:14.320Z,13.50
2018-09-27T00:13:43.090Z,13.50
2018-09-27T00:16:11.672Z,13.50
2018-09-27T00:18:40.228Z,13.50
2018-09-27T00:21:08.829Z,13.50
2018-09-27T00:23:37.667Z,13.50
2018-09-27T00:26:06.564Z,13.40
2018-09-27T00:28:35.113Z,13.50
2018-09-27T00:31:03.733Z,13.40
2018-09-27T00:33:32.289Z,13.40
2018-09-27T00:36:00.852Z,13.40
2018-09-27T00:38:29.488Z,13.30
2018-09-27T00:40:58.077Z,13.30
2018-09-27T00:43:26.619Z,13.30
2018-09-27T00:45:55.191Z,13.20
2018-09-27T00:48:23.736Z,13.20
2018-09-27T00:50:52.306Z,13.30
2018-09-27T00:53:20.864Z,13.20
2018-09-27T00:55:49.424Z,13.20
2018-09-27T00:58:17.955Z,13.20
2018-09-27T01:00:46.503Z,13.20
2018-09-27T01:03:15.077Z,13.20
2018-09-27T01:05:43.629Z,13.10
2018-09-27T01:08:12.263Z,13.10
2018-09-27T01:10:40.816Z,13.10
2018-09-27T01:13:09.407Z,13.00
2018-09-27T01:15:38.055Z,13.00
2018-09-27T01:18:06.936Z,13.00
2018-09-27T01:20:35.508Z,13.00
2018-09-27T01:23:04.025Z,13.00
2018-09-27T01:25:32.600Z,12.90
2018-09-27T01:28:01.187Z,12.90
2018-09-27T01:30:29.776Z,12.90
2018-09-27T01:32:58.315Z,12.90
2018-09-27T01:35:26.995Z,12.80
2018-09-27T01:37:55.571Z,12.80
2018-09-27T01:40:24.127Z,12.80
2018-09-27T01:42:52.731Z,12.80
2018-09-27T01:45:21.321Z,12.80
2018-09-27T01:47:50.033Z,12.80
2018-09-27T01:50:18.554Z,12.80
2018-09-27T01:52:47.134Z,12.80
2018-09-27T01:55:15.714Z,12.80
2018-09-27T01:57:44.264Z,12.80
2018-09-27T02:00:12.828Z,12.80
2018-09-27T02:02:41.383Z,12.80
2018-09-27T02:05:10.015Z,12.80
2018-09-27T02:07:38.538Z,12.80
2018-09-27T02:10:07.158Z,12.90
2018-09-27T02:12:35.708Z,12.90
2018-09-27T02:15:04.378Z,12.90
2018-09-27T02:17:32.968Z,12.90
2018-09-27T02:20:01.494Z,13.00
2018-09-27T02:22:30.052Z,13.00
2018-09-27T02:24:58.591Z,13.10
2018-09-27T02:27:27.123Z,13.10
2018-09-27T02:29:55.669Z,13.10
2018-09-27T02:32:24.233Z,13.10
2018-09-27T02:34:52.791Z,13.10
2018-09-27T02:37:21.347Z,13.10
2018-09-27T02:39:49.900Z,13.10
2018-09-27T02:42:18.755Z,13.10
2018-09-27T02:44:47.327Z,13.10
2018-09-27T02:47:15.913Z,13.10
2018-09-27T02:49:44.518Z,13.00
2018-09-27T02:52:13.056Z,13.10
2018-09-27T02:54:41.607Z,13.10
2018-09-27T02:57:10.190Z,13.20
2018-09-27T02:59:38.745Z,13.20
2018-09-27T03:02:07.298Z,13.20
2018-09-27T03:04:35.849Z,13.20
2018-09-27T03:07:04.409Z,13.20
2018-09-27T03:09:33.150Z,13.20
2018-09-27T03:12:01.711Z,13.20
2018-09-27T03:14:30.243Z,13.10
2018-09-27T03:16:58.782Z,13.10
2018-09-27T03:19:27.324Z,13.10
2018-09-27T03:21:55.862Z,13.10
2018-09-27T03:24:24.377Z,13.00
2018-09-27T03:26:52.915Z,13.00
2018-09-27T03:29:21.424Z,12.90
2018-09-27T03:31:49.967Z,12.90
2018-09-27T03:34:18.597Z,12.90
2018-09-27T03:36:47.183Z,12.90
2018-09-27T03:39:15.745Z,12.90
2018-09-27T03:41:44.305Z,12.80
2018-09-27T03:44:12.864Z,12.80
2018-09-27T03:46:41.620Z,12.80
2018-09-27T03:49:10.267Z,12.80
2018-09-27T03:51:39.003Z,12.80
2018-09-27T03:54:07.527Z,12.80
2018-09-27T03:56:36.083Z,12.80
2018-09-27T03:59:04.686Z,12.80
2018-09-27T04:01:33.488Z,12.80
2018-09-27T04:04:02.197Z,12.80
2018-09-27T04:06:30.791Z,12.80
2018-09-27T04:08:59.693Z,12.80
2018-09-27T04:11:28.269Z,12.70
2018-09-27T04:13:56.842Z,12.80
2018-09-27T04:16:25.380Z,12.80
2018-09-27T04:18:53.934Z,12.70
2018-09-27T04:21:22.553Z,12.70
2018-09-27T04:23:51.096Z,12.70
2018-09-27T04:26:19.751Z,12.70
2018-09-27T04:28:48.303Z,12.70
2018-09-27T04:31:16.885Z,12.70
2018-09-27T04:33:45.514Z,12.70
2018-09-27T04:36:14.001Z,12.60
2018-09-27T04:38:42.522Z,12.60
2018-09-27T04:41:11.052Z,12.60
2018-09-27T04:43:39.612Z,12.60
2018-09-27T04:46:08.176Z,12.50
2018-09-27T04:48:36.691Z,12.50
2018-09-27T04:51:05.283Z,12.50
2018-09-27T04:53:33.878Z,12.50
2018-09-27T04:56:02.409Z,12.40
2018-09-27T04:58:30.960Z,12.40
2018-09-27T05:00:59.517Z,12.40
2018-09-27T05:03:28.082Z,12.40
2018-09-27T05:05:56.626Z,12.40
2018-09-27T05:08:25.163Z,12.40
2018-09-27T05:10:53.788Z,12.40
2018-09-27T05:13:22.423Z,12.40
2018-09-27T05:15:51.012Z,12.50
2018-09-27T05:18:19.599Z,12.50
2018-09-27T05:20:48.142Z,12.50
2018-09-27T05:23:16.762Z,12.50
2018-09-27T05:25:45.340Z,12.50
2018-09-27T05:28:13.864Z,12.50
2018-09-27T05:30:42.460Z,12.50
2018-09-27T05:33:10.966Z,12.50
2018-09-27T05:35:39.505Z,12.40
2018-09-27T05:38:08.057Z,12.40
2018-09-27T05:40:36.611Z,12.40
2018-09-27T05:43:05.147Z,12.40
2018-09-27T05:45:33.720Z,12.40
2018-09-27T05:48:02.214Z,12.50
2018-09-27T05:50:30.776Z,12.50
2018-09-27T05:52:59.352Z,12.50
2018-09-27T05:55:27.907Z,12.50
2018-09-27T05:57:56.440Z,12.50
2018-09-27T06:00:24.981Z,12.50
2018-09-27T06:02:53.513Z,12.50
2018-09-27T06:05:22.066Z,12.50
2018-09-27T06:07:50.597Z,12.60
2018-09-27T06:10:19.157Z,12.60
2018-09-27T06:12:47.715Z,12.80
2018-09-27T06:15:16.288Z,12.90
2018-09-27T06:17:44.812Z,12.90
2018-09-27T06:20:13.733Z,12.80
2018-09-27T06:22:42.274Z,12.90
2018-09-27T06:25:10.856Z,12.80
2018-09-27T06:27:39.398Z,12.90
2018-09-27T06:30:08.220Z,12.90
2018-09-27T06:32:36.739Z,13.00
2018-09-27T06:35:05.639Z,13.10
2018-09-27T06:37:34.143Z,13.10
2018-09-27T06:40:02.739Z,13.10
2018-09-27T06:42:31.292Z,13.20
2018-09-27T06:44:59.854Z,13.20
2018-09-27T06:47:28.406Z,13.20
2018-09-27T06:49:56.962Z,13.20
2018-09-27T06:52:25.516Z,13.20
2018-09-27T06:54:54.117Z,13.20
2018-09-27T06:57:22.639Z,13.20
2018-09-27T06:59:51.261Z,13.20
2018-09-27T07:02:19.790Z,13.20
2018-09-27T07:04:48.371Z,13.30
2018-09-27T07:07:16.935Z,13.40
2018-09-27T07:09:45.462Z,13.40
2018-09-27T07:12:14.126Z,13.40
2018-09-27T07:14:42.699Z,13.40
2018-09-27T07:17:11.186Z,13.40
2018-09-27T07:19:39.822Z,13.50
2018-09-27T07:22:08.366Z,13.50
2018-09-27T07:24:36.931Z,13.60
2018-09-27T07:27:05.489Z,13.60
2018-09-27T07:29:34.048Z,13.70
2018-09-27T07:32:02.643Z,13.80
2018-09-27T07:34:31.188Z,13.80
2018-09-27T07:36:59.732Z,13.90
2018-09-27T07:39:28.287Z,14.00
2018-09-27T07:41:56.867Z,14.00
2018-09-27T07:44:25.391Z,14.00
2018-09-27T07:46:54.049Z,14.00
2018-09-27T07:49:22.593Z,14.10
2018-09-27T07:51:51.134Z,14.10
2018-09-27T07:54:19.771Z,14.20
2018-09-27T07:56:48.256Z,14.30
2018-09-27T07:59:16.821Z,14.30
2018-09-27T08:01:45.372Z,14.40
2018-09-27T08:04:14.902Z,14.50
2018-09-27T08:06:43.419Z,14.60
2018-09-27T08:09:11.950Z,14.70
2018-09-27T08:11:40.625Z,14.70
2018-09-27T08:14:09.454Z,14.70
2018-09-27T08:16:37.992Z,14.80
2018-09-27T08:19:06.555Z,14.80
2018-09-27T08:21:35.100Z,14.90
2018-09-27T08:24:03.695Z,15.00
2018-09-27T08:26:32.215Z,15.10
2018-09-27T08:29:00.761Z,15.10
2018-09-27T08:31:29.320Z,15.10
2018-09-27T08:33:57.868Z,15.10
2018-09-27T08:36:26.398Z,15.10
2018-09-27T08:38:54.970Z,15.10
2018-09-27T08:41:23.537Z,15.20
2018-09-27T08:43:52.052Z,15.20
2018-09-27T08:46:20.587Z,15.20
2018-09-27T08:48:49.139Z,15.20
2018-09-27T08:51:17.673Z,15.10
2018-09-27T08:53:46.220Z,15.10
2018-09-27T08:56:15.113Z,15.10
2018-09-27T08:58:43.516Z,15.00
2018-09-27T09:01:12.057Z,15.00
2018-09-27T09:03:40.712Z,15.00
2018-09-27T09:06:09.225Z,15.00
2018-09-27T09:08:38.097Z,15.00
2018-09-27T09:11:06.757Z,14.90
2018-09-27T09:13:35.384Z,14.90
2018-09-27T09:16:04.352Z,15.00
2018-09-27T09:18:33.009Z,15.10
2018-09-27T09:21:01.664Z,15.10
2018-09-27T09:23:30.217Z,15.20
2018-09-27T09:25:58.769Z,15.20
2018-09-27T09:28:27.289Z,15.20
2018-09-27T09:30:55.849Z,15.30
2018-09-27T09:33:24.692Z,15.30
2018-09-27T09:35:53.298Z,15.40
2018-09-27T09:38:21.859Z,15.50
2018-09-27T09:40:50.392Z,15.60
2018-09-27T09:43:18.969Z,15.60
2018-09-27T09:45:47.557Z,15.70
2018-09-27T09:48:16.121Z,15.70
2018-09-27T09:50:44.665Z,15.80
2018-09-27T09:53:13.218Z,15.80
2018-09-27T09:55:41.755Z,15.80
2018-09-27T09:58:10.423Z,15.70
2018-09-27T10:00:38.959Z,15.70
2018-09-27T10:03:08.391Z,15.80
2018-09-27T10:05:36.964Z,15.90
2018-09-27T10:08:05.676Z,15.90
2018-09-27T10:10:34.228Z,16.00
2018-09-27T10:13:02.780Z,16.10
2018-09-27T10:15:31.461Z,16.20
2018-09-27T10:18:00.251Z,16.10
2018-09-27T10:20:28.894Z,16.10
2018-09-27T10:22:57.530Z,16.20
2018-09-27T10:25:26.052Z,16.30
2018-09-27T10:27:54.607Z,16.30
2018-09-27T10:30:23.203Z,16.30
2018-09-27T10:32:51.727Z,16.30
2018-09-27T10:35:20.293Z,16.40
2018-09-27T10:37:48.922Z,16.40
2018-09-27T10:40:17.448Z,16.40
2018-09-27T10:42:46.028Z,16.50
2018-09-27T10:45:14.584Z,16.60
2018-09-27T10:47:43.321Z,16.80
2018-09-27T10:50:11.935Z,16.90
2018-09-27T10:52:40.490Z,17.00
2018-09-27T10:55:09.084Z,17.20
2018-09-27T10:57:37.689Z,17.30
2018-09-27T11:00:06.332Z,17.40
2018-09-27T11:02:34.848Z,17.40
2018-09-27T11:05:03.419Z,17.50
2018-09-27T11:07:31.963Z,17.60
2018-09-27T11:10:00.505Z,17.60
2018-09-27T11:12:29.057Z,17.70
2018-09-27T11:14:57.594Z,17.90
2018-09-27T11:17:26.148Z,18.10
2018-09-27T11:19:54.656Z,18.20
2018-09-27T11:22:23.190Z,18.30
2018-09-27T11:24:51.743Z,18.20
2018-09-27T11:27:20.304Z,18.20
2018-09-27T11:29:54.285Z,18.00
2018-09-27T11:32:28.229Z,17.90
2018-09-27T11:34:56.914Z,17.90
2018-09-27T11:37:25.739Z,18.00
2018-09-27T11:39:54.294Z,17.90
2018-09-27T11:42:23.326Z,17.80
2018-09-27T11:44:51.989Z,17.70
2018-09-27T11:47:20.545Z,17.80
2018-09-27T11:49:49.097Z,17.80
2018-09-27T11:52:17.619Z,17.80
2018-09-27T11:54:46.163Z,17.70
2018-09-27T11:57:14.709Z,17.70
2018-09-27T11:59:43.231Z,17.60
2018-09-27T12:02:11.811Z,17.60
2018-09-27T12:04:40.327Z,17.50
2018-09-27T12:07:08.909Z,17.60
2018-09-27T12:09:37.456Z,17.70
2018-09-27T12:12:06.063Z,17.60
2018-09-27T12:14:34.588Z,17.60
2018-09-27T12:17:03.160Z,17.60
2018-09-27T12:19:31.767Z,17.60
2018-09-27T12:22:00.303Z,17.70
2018-09-27T12:24:28.882Z,17.60
2018-09-27T12:26:57.433Z,17.80
2018-09-27T12:29:25.957Z,17.70
2018-09-27T12:31:54.502Z,17.70
2018-09-27T12:34:23.175Z,17.60
2018-09-27T12:36:51.697Z,17.70
2018-09-27T12:39:20.257Z,17.80
2018-09-27T12:41:48.876Z,17.70
2018-09-27T12:44:17.490Z,17.70
2018-09-27T12:46:46.126Z,17.70
2018-09-27T12:49:14.588Z,17.90
2018-09-27T12:51:43.301Z,18.00
2018-09-27T12:54:11.744Z,17.90
2018-09-27T12:56:40.352Z,17.90
2018-09-27T12:59:09.085Z,18.00
2018-09-27T13:01:37.747Z,18.00
2018-09-27T13:04:06.340Z,18.00
2018-09-27T13:06:34.882Z,18.00
2018-09-27T13:09:04.186Z,17.90
2018-09-27T13:11:32.675Z,17.80
2018-09-27T13:14:01.211Z,17.70
2018-09-27T13:16:29.755Z,17.70
2018-09-27T13:18:58.297Z,17.70
2018-09-27T13:21:29.679Z,17.70
2018-09-27T13:23:58.316Z,17.70
2018-09-27T13:26:26.978Z,17.70
2018-09-27T13:28:55.518Z,17.60
2018-09-27T13:31:24.121Z,17.50
2018-09-27T13:33:52.692Z,17.50
2018-09-27T13:36:21.261Z,17.40
2018-09-27T13:38:49.848Z,17.40
2018-09-27T13:41:18.429Z,17.30
2018-09-27T13:43:46.952Z,17.30
2018-09-27T13:46:16.177Z,17.20
2018-09-27T13:48:44.730Z,17.10
2018-09-27T13:51:13.284Z,17.10
2018-09-27T13:53:41.822Z,17.10
2018-09-27T13:56:10.384Z,17.00
2018-09-27T13:58:38.966Z,16.90
2018-09-27T14:01:07.574Z,16.90
2018-09-27T14:03:36.067Z,17.00
2018-09-27T14:06:04.728Z,17.00
2018-09-27T14:08:33.272Z,17.00
2018-09-27T14:11:01.805Z,17.00
2018-09-27T14:13:30.360Z,16.90
2018-09-27T14:15:58.924Z,16.90
2018-09-27T14:18:27.519Z,16.80
2018-09-27T14:20:56.112Z,16.80
2018-09-27T14:23:24.678Z,16.80
2018-09-27T14:25:53.278Z,16.70
2018-09-27T14:28:21.812Z,16.70
2018-09-27T14:30:50.472Z,16.60
2018-09-27T14:33:19.067Z,16.60
2018-09-27T14:35:47.746Z,16.60
2018-09-27T14:38:16.624Z,16.50
2018-09-27T14:40:45.213Z,16.60
2018-09-27T14:43:13.851Z,16.60
2018-09-27T14:45:42.563Z,16.60
2018-09-27T14:48:11.129Z,16.70
2018-09-27T14:50:39.671Z,16.70
2018-09-27T14:53:08.253Z,16.70
2018-09-27T14:55:36.828Z,16.70
2018-09-27T14:58:05.370Z,16.70
2018-09-27T15:00:33.983Z,16.70
2018-09-27T15:03:02.629Z,16.70
2018-09-27T15:05:31.177Z,16.70
2018-09-27T15:07:59.744Z,16.70
2018-09-27T15:10:28.468Z,16.70
2018-09-27T15:12:56.970Z,16.70
2018-09-27T15:15:26.071Z,16.70
2018-09-27T15:17:54.653Z,16.70
2018-09-27T15:20:23.251Z,16.70
2018-09-27T15:22:52.045Z,16.60
2018-09-27T15:25:20.639Z,16.60
2018-09-27T15:27:49.229Z,16.60
2018-09-27T15:30:18.541Z,16.90
2018-09-27T15:32:47.105Z,17.00
2018-09-27T15:35:15.661Z,17.10
2018-09-27T15:37:44.211Z,16.90
2018-09-27T15:40:12.766Z,16.90
2018-09-27T15:42:41.385Z,16.80
2018-09-27T15:45:09.954Z,16.80
2018-09-27T15:47:38.537Z,16.80
2018-09-27T15:50:07.337Z,16.70
2018-09-27T15:52:36.012Z,16.70
2018-09-27T15:55:04.638Z,16.70
2018-09-27T15:57:33.197Z,16.70
2018-09-27T16:00:01.847Z,16.60
2018-09-27T16:02:30.434Z,16.60
2018-09-27T16:04:59.088Z,16.60
2018-09-27T16:07:27.633Z,16.60
2018-09-27T16:09:56.224Z,16.60
2018-09-27T16:12:25.109Z,16.50
2018-09-27T16:14:53.805Z,16.50
2018-09-27T16:17:22.302Z,16.50
2018-09-27T16:19:50.859Z,16.50
2018-09-27T16:22:20.511Z,16.40
2018-09-27T16:24:49.051Z,16.40
2018-09-27T16:27:17.602Z,16.40
2018-09-27T16:29:46.213Z,16.30
2018-09-27T16:32:14.718Z,16.30
2018-09-27T16:34:43.897Z,16.30
2018-09-27T16:37:12.490Z,16.20
2018-09-27T16:39:41.049Z,16.20
2018-09-27T16:42:09.607Z,16.10
2018-09-27T16:44:38.169Z,16.10
2018-09-27T16:47:06.839Z,16.10
2018-09-27T16:49:35.523Z,16.00
2018-09-27T16:52:04.098Z,16.00
2018-09-27T16:54:32.632Z,15.90
2018-09-27T16:57:01.210Z,15.90
2018-09-27T16:59:29.815Z,15.80
2018-09-27T17:01:58.467Z,15.80
2018-09-27T17:04:26.983Z,15.80
2018-09-27T17:06:55.548Z,15.80
2018-09-27T17:09:24.216Z,15.80
2018-09-27T17:11:52.793Z,15.80
2018-09-27T17:14:21.369Z,15.80
2018-09-27T17:16:49.933Z,15.80
2018-09-27T17:19:18.513Z,15.80
2018-09-27T17:21:47.083Z,15.80
2018-09-27T17:24:15.765Z,15.80
2018-09-27T17:26:44.341Z,15.70
2018-09-27T17:29:12.955Z,15.70
2018-09-27T17:31:42.440Z,15.70
2018-09-27T17:34:10.998Z,15.70
2018-09-27T17:36:39.556Z,15.70
2018-09-27T17:39:08.541Z,15.70
2018-09-27T17:41:37.132Z,15.70
2018-09-27T17:44:05.715Z,15.70
2018-09-27T17:46:34.311Z,15.70
2018-09-27T17:49:02.842Z,15.80
2018-09-27T17:51:31.495Z,15.80
2018-09-27T17:54:00.160Z,15.80
2018-09-27T17:56:35.260Z,15.80
2018-09-27T17:59:04.048Z,15.70
2018-09-27T18:01:32.677Z,15.80
2018-09-27T18:04:01.534Z,15.70
2018-09-27T18:06:30.169Z,15.80
2018-09-27T18:08:58.778Z,15.80
2018-09-27T18:11:27.375Z,15.80
2018-09-27T18:13:56.297Z,15.80
2018-09-27T18:16:24.918Z,15.80
2018-09-27T18:18:53.526Z,15.80
2018-09-27T18:21:22.138Z,15.80
2018-09-27T18:23:50.771Z,15.80
2018-09-27T18:26:20.531Z,15.80
2018-09-27T18:28:49.315Z,15.80
2018-09-27T18:31:18.178Z,15.80
2018-09-27T18:33:46.759Z,15.80
2018-09-27T18:36:15.347Z,15.80
2018-09-27T18:38:44.005Z,15.70
2018-09-27T18:41:12.976Z,15.70
2018-09-27T18:43:41.537Z,15.80
2018-09-27T18:46:10.329Z,15.80
2018-09-27T18:48:38.960Z,15.80
2018-09-27T18:51:08.095Z,15.80
2018-09-27T18:53:37.018Z,15.80
2018-09-27T18:56:05.614Z,15.80
2018-09-27T18:58:34.243Z,15.80
2018-09-27T19:01:03.014Z,15.80
2018-09-27T19:03:31.654Z,15.80
2018-09-27T19:06:00.302Z,15.80
2018-09-27T19:08:28.976Z,15.80
2018-09-27T19:10:58.388Z,15.80
2018-09-27T19:13:27.139Z,15.80
2018-09-27T19:15:55.900Z,15.80
2018-09-27T19:18:24.595Z,15.70
2018-09-27T19:20:53.264Z,15.70
2018-09-27T19:23:22.088Z,15.70
2018-09-27T19:25:50.837Z,15.70
2018-09-27T19:28:20.590Z,15.70
2018-09-27T19:30:49.297Z,15.70
2018-09-27T19:33:17.881Z,15.70
2018-09-27T19:35:46.501Z,15.80
2018-09-27T19:38:15.105Z,15.80
2018-09-27T19:40:43.702Z,15.80
2018-09-27T19:43:12.504Z,15.80
2018-09-27T19:45:41.171Z,15.80
2018-09-27T19:48:09.914Z,15.90
2018-09-27T19:50:38.477Z,15.80
2018-09-27T19:53:07.193Z,15.90
2018-09-27T19:55:35.821Z,15.90
2018-09-27T19:58:04.471Z,15.90
2018-09-27T20:00:33.178Z,15.90
2018-09-27T20:03:01.737Z,15.90
2018-09-27T20:05:30.316Z,15.90
2018-09-27T20:07:58.907Z,15.90
2018-09-27T20:10:27.551Z,15.80
2018-09-27T20:12:56.139Z,15.80
2018-09-27T20:15:24.706Z,15.80
2018-09-27T20:17:53.260Z,15.80
2018-09-27T20:20:21.856Z,15.80
2018-09-27T20:22:50.441Z,15.90
2018-09-27T20:25:19.048Z,15.90
2018-09-27T20:27:47.672Z,16.00
2018-09-27T20:30:16.241Z,16.00
2018-09-27T20:32:44.785Z,16.00
2018-09-27T20:35:13.335Z,16.00
2018-09-27T20:37:41.923Z,16.00
2018-09-27T20:40:10.620Z,16.00
2018-09-27T20:42:39.252Z,15.90
2018-09-27T20:45:08.150Z,16.00
2018-09-27T20:47:36.756Z,15.90
2018-09-27T20:50:05.383Z,15.90
2018-09-27T20:52:33.971Z,15.90
2018-09-27T20:55:02.574Z,15.90
2018-09-27T20:57:31.133Z,15.90
2018-09-27T20:59:59.688Z,15.80
2018-09-27T21:02:28.290Z,15.80
2018-09-27T21:04:56.923Z,15.90
2018-09-27T21:07:25.462Z,15.80
2018-09-27T21:09:54.007Z,15.80
2018-09-27T21:12:22.613Z,15.80
2018-09-27T21:14:51.137Z,15.70
2018-09-27T21:17:19.740Z,15.70
2018-09-27T21:19:48.294Z,15.60
2018-09-27T21:22:16.831Z,15.50
2018-09-27T21:24:45.388Z,15.10
2018-09-27T21:27:13.943Z,14.40
2018-09-27T21:29:42.509Z,14.10
2018-09-27T21:32:11.084Z,13.80
2018-09-27T21:34:39.647Z,13.50
2018-09-27T21:37:08.248Z,13.40
2018-09-27T21:39:36.831Z,13.30
2018-09-27T21:42:05.460Z,13.20
2018-09-27T21:44:34.024Z,13.20
2018-09-27T21:47:02.592Z,13.20
2018-09-27T21:49:31.212Z,13.20
2018-09-27T21:51:59.763Z,13.30
2018-09-27T21:54:28.367Z,13.20
2018-09-27T21:56:56.952Z,13.20
2018-09-27T21:59:25.522Z,13.20
2018-09-27T22:01:54.071Z,13.20
2018-09-27T22:04:22.664Z,13.10
2018-09-27T22:06:51.198Z,13.00
2018-09-27T22:09:19.764Z,13.00
2018-09-27T22:11:48.303Z,12.90
2018-09-27T22:14:16.865Z,12.90
2018-09-27T22:16:45.429Z,12.90
2018-09-27T22:19:13.987Z,13.00
2018-09-27T22:21:42.564Z,13.00
2018-09-27T22:24:11.132Z,13.00
2018-09-27T22:26:39.684Z,13.00
2018-09-27T22:29:08.320Z,13.00
2018-09-27T22:31:36.909Z,12.90
2018-09-27T22:34:05.485Z,12.90
2018-09-27T22:36:34.104Z,12.90
2018-09-27T22:39:02.737Z,12.80
2018-09-27T22:41:31.297Z,12.80
2018-09-27T22:43:59.836Z,12.80
2018-09-27T22:46:28.428Z,12.80
2018-09-27T22:48:57.106Z,12.80
2018-09-27T22:51:25.627Z,12.80
2018-09-27T22:53:54.240Z,12.80
2018-09-27T22:56:22.865Z,12.70
2018-09-27T22:58:51.465Z,12.60
2018-09-27T23:01:20.065Z,12.60
2018-09-27T23:03:48.603Z,12.50
2018-09-27T23:06:17.153Z,12.50
2018-09-27T23:08:45.672Z,12.50
2018-09-27T23:11:14.208Z,12.40
2018-09-27T23:13:42.791Z,12.40
2018-09-27T23:16:11.373Z,12.40
2018-09-27T23:18:39.947Z,12.40
2018-09-27T23:21:08.553Z,12.40
2018-09-27T23:23:37.134Z,12.30
2018-09-27T23:26:05.801Z,12.30
2018-09-27T23:28:34.286Z,12.20
2018-09-27T23:31:02.918Z,12.20
2018-09-27T23:33:31.501Z,12.20
2018-09-27T23:36:00.091Z,12.20
2018-09-27T23:38:28.668Z,12.20
2018-09-27T23:40:57.227Z,12.20
2018-09-27T23:43:25.800Z,12.20
2018-09-27T23:45:54.362Z,12.10
2018-09-27T23:48:22.962Z,12.10
2018-09-27T23:50:51.601Z,12.10
2018-09-27T23:53:20.188Z,12.10
2018-09-27T23:55:48.743Z,12.00
2018-09-27T23:58:17.307Z,11.90
